Terminal Aerodrome Forecast
Issued by NWS

Home | Current Version | Previous Version | Text Only | Print | Product List | Glossary On
Versions: 1 2 3 4 5 6 7 8 9 10 11 12 13 14 15 16 17 18 19 20 21 22 23 24 25 26 27 28
797
FTUS43 KGRB 090233 AAB
TAFATW
TAF AMD
KATW 090233Z 0903/0924 29014G21KT P6SM SCT060
     FM090500 29009KT P6SM BKN030
     FM091500 28011G16KT P6SM BKN035
     FM092200 27008KT P6SM SCT045=

USA.gov is the U.S. government's official web portal to all federal, state and local government web resources and services.